Terminal Aerodrome Forecast
Issued by NWS

Home | Current Version | Previous Version | Text Only | Print | Product List | Glossary On
Versions: 1 2 3 4 5 6 7 8 9 10 11 12 13 14 15 16 17 18 19 20 21 22 23
870
FTUS43 KAPX 251120
TAFAPN
TAF
KAPN 251120Z 2512/2612 05010KT P6SM -SHRA SCT005 OVC030
      TEMPO 2512/2515 6SM -SHRA BR BKN005
     FM251500 05010KT 4SM -SHRA OVC015
     FM252200 05008KT 3SM -SHRA OVC020
     FM260200 02006KT P6SM VCSH OVC015
     FM260600 36005KT P6SM OVC010=

USA.gov is the U.S. government's official web portal to all federal, state and local government web resources and services.